sensor_id;sensor_type;location;lat;lon;timestamp;P1;durP1;ratioP1;P2;durP2;ratioP2
61709;SDS011;47633;51.494;5.386;2023-05-09T00:01:28;13.03;;;9.83;;
61709;SDS011;47633;51.494;5.386;2023-05-09T00:03:55;15.25;;;10.10;;
61709;SDS011;47633;51.494;5.386;2023-05-09T00:06:22;12.93;;;10.90;;
61709;SDS011;47633;51.494;5.386;2023-05-09T00:08:47;13.40;;;10.83;;
61709;SDS011;47633;51.494;5.386;2023-05-09T00:11:12;14.98;;;10.82;;
61709;SDS011;47633;51.494;5.386;2023-05-09T00:13:37;15.00;;;11.23;;
61709;SDS011;47633;51.494;5.386;2023-05-09T00:16:03;12.82;;;10.63;;
61709;SDS011;47633;51.494;5.386;2023-05-09T00:18:29;13.77;;;10.10;;
61709;SDS011;47633;51.494;5.386;2023-05-09T00:20:55;13.18;;;10.13;;
61709;SDS011;47633;51.494;5.386;2023-05-09T00:23:21;12.30;;;9.75;;
61709;SDS011;47633;51.494;5.386;2023-05-09T00:25:46;14.30;;;10.70;;
61709;SDS011;47633;51.494;5.386;2023-05-09T00:28:12;12.90;;;9.70;;
61709;SDS011;47633;51.494;5.386;2023-05-09T00:30:37;13.98;;;10.48;;
61709;SDS011;47633;51.494;5.386;2023-05-09T00:33:02;13.20;;;9.63;;
61709;SDS011;47633;51.494;5.386;2023-05-09T00:35:28;11.13;;;9.77;;
61709;SDS011;47633;51.494;5.386;2023-05-09T00:37:53;14.60;;;8.95;;
61709;SDS011;47633;51.494;5.386;2023-05-09T00:40:19;13.30;;;9.48;;
61709;SDS011;47633;51.494;5.386;2023-05-09T00:42:44;12.15;;;9.38;;
61709;SDS011;47633;51.494;5.386;2023-05-09T00:45:09;13.50;;;9.68;;
61709;SDS011;47633;51.494;5.386;2023-05-09T00:47:35;12.65;;;9.05;;
61709;SDS011;47633;51.494;5.386;2023-05-09T00:50:02;12.52;;;9.10;;
61709;SDS011;47633;51.494;5.386;2023-05-09T00:52:27;11.43;;;9.30;;
61709;SDS011;47633;51.494;5.386;2023-05-09T00:54:54;11.40;;;8.52;;
61709;SDS011;47633;51.494;5.386;2023-05-09T00:57:20;14.52;;;9.05;;
61709;SDS011;47633;51.494;5.386;2023-05-09T00:59:45;11.88;;;8.50;;
61709;SDS011;47633;51.494;5.386;2023-05-09T01:02:11;10.57;;;8.20;;
61709;SDS011;47633;51.494;5.386;2023-05-09T01:04:36;9.13;;;6.97;;
61709;SDS011;47633;51.494;5.386;2023-05-09T01:09:59;11.20;;;8.75;;
61709;SDS011;47633;51.494;5.386;2023-05-09T01:15:23;10.13;;;7.80;;
61709;SDS011;47633;51.494;5.386;2023-05-09T01:18:06;11.20;;;8.15;;
61709;SDS011;47633;51.494;5.386;2023-05-09T01:20:42;9.80;;;7.65;;
61709;SDS011;47633;51.494;5.386;2023-05-09T01:23:28;10.25;;;8.02;;
61709;SDS011;47633;51.494;5.386;2023-05-09T01:26:03;12.05;;;8.07;;
61709;SDS011;47633;51.494;5.386;2023-05-09T01:31:08;11.37;;;7.97;;
61709;SDS011;47633;51.494;5.386;2023-05-09T01:33:35;11.48;;;7.20;;
61709;SDS011;47633;51.494;5.386;2023-05-09T01:36:08;11.18;;;7.22;;
61709;SDS011;47633;51.494;5.386;2023-05-09T01:41:05;9.40;;;6.80;;
61709;SDS011;47633;51.494;5.386;2023-05-09T01:43:34;10.23;;;7.05;;
61709;SDS011;47633;51.494;5.386;2023-05-09T01:46:02;10.88;;;7.10;;
61709;SDS011;47633;51.494;5.386;2023-05-09T01:48:29;11.45;;;7.78;;
61709;SDS011;47633;51.494;5.386;2023-05-09T01:50:56;9.43;;;6.95;;
61709;SDS011;47633;51.494;5.386;2023-05-09T01:53:23;8.95;;;6.95;;
61709;SDS011;47633;51.494;5.386;2023-05-09T01:55:51;8.95;;;6.38;;
61709;SDS011;47633;51.494;5.386;2023-05-09T01:58:17;9.60;;;7.10;;
61709;SDS011;47633;51.494;5.386;2023-05-09T02:00:44;9.70;;;7.00;;
61709;SDS011;47633;51.494;5.386;2023-05-09T02:03:11;8.88;;;6.93;;
61709;SDS011;47633;51.494;5.386;2023-05-09T02:05:38;11.70;;;7.30;;
61709;SDS011;47633;51.494;5.386;2023-05-09T02:08:06;9.73;;;6.53;;
61709;SDS011;47633;51.494;5.386;2023-05-09T02:10:32;8.80;;;6.10;;
61709;SDS011;47633;51.494;5.386;2023-05-09T02:12:59;8.52;;;6.90;;
61709;SDS011;47633;51.494;5.386;2023-05-09T02:15:24;8.18;;;6.05;;
61709;SDS011;47633;51.494;5.386;2023-05-09T02:17:50;10.38;;;7.32;;
61709;SDS011;47633;51.494;5.386;2023-05-09T02:20:16;9.38;;;6.75;;
61709;SDS011;47633;51.494;5.386;2023-05-09T02:22:41;9.05;;;6.72;;
61709;SDS011;47633;51.494;5.386;2023-05-09T02:25:08;9.90;;;6.38;;
61709;SDS011;47633;51.494;5.386;2023-05-09T02:27:34;9.88;;;6.63;;
61709;SDS011;47633;51.494;5.386;2023-05-09T02:30:03;8.27;;;6.30;;
61709;SDS011;47633;51.494;5.386;2023-05-09T02:32:32;10.95;;;6.45;;
61709;SDS011;47633;51.494;5.386;2023-05-09T02:35:00;11.02;;;7.22;;
61709;SDS011;47633;51.494;5.386;2023-05-09T02:37:25;8.70;;;6.82;;
61709;SDS011;47633;51.494;5.386;2023-05-09T02:39:51;10.02;;;6.25;;
61709;SDS011;47633;51.494;5.386;2023-05-09T02:42:21;8.63;;;6.90;;
61709;SDS011;47633;51.494;5.386;2023-05-09T02:44:49;9.43;;;6.43;;
61709;SDS011;47633;51.494;5.386;2023-05-09T02:47:15;8.95;;;6.72;;
61709;SDS011;47633;51.494;5.386;2023-05-09T02:49:40;9.38;;;5.93;;
61709;SDS011;47633;51.494;5.386;2023-05-09T02:52:05;8.63;;;6.25;;
61709;SDS011;47633;51.494;5.386;2023-05-09T02:54:31;8.60;;;6.47;;
61709;SDS011;47633;51.494;5.386;2023-05-09T02:56:56;8.93;;;6.28;;
61709;SDS011;47633;51.494;5.386;2023-05-09T02:59:21;9.00;;;6.67;;
61709;SDS011;47633;51.494;5.386;2023-05-09T03:01:46;9.77;;;6.47;;
61709;SDS011;47633;51.494;5.386;2023-05-09T03:04:12;11.43;;;6.43;;
61709;SDS011;47633;51.494;5.386;2023-05-09T03:06:37;10.18;;;6.50;;
61709;SDS011;47633;51.494;5.386;2023-05-09T03:09:02;8.70;;;6.22;;
61709;SDS011;47633;51.494;5.386;2023-05-09T03:11:28;8.73;;;6.72;;
61709;SDS011;47633;51.494;5.386;2023-05-09T03:13:54;9.05;;;6.72;;
61709;SDS011;47633;51.494;5.386;2023-05-09T03:16:20;8.48;;;6.38;;
61709;SDS011;47633;51.494;5.386;2023-05-09T03:18:45;9.70;;;6.60;;
61709;SDS011;47633;51.494;5.386;2023-05-09T03:21:11;8.70;;;6.85;;
61709;SDS011;47633;51.494;5.386;2023-05-09T03:23:36;8.65;;;6.47;;
61709;SDS011;47633;51.494;5.386;2023-05-09T03:26:02;8.68;;;5.80;;
61709;SDS011;47633;51.494;5.386;2023-05-09T03:28:28;8.63;;;6.00;;
61709;SDS011;47633;51.494;5.386;2023-05-09T03:30:53;8.77;;;6.13;;
61709;SDS011;47633;51.494;5.386;2023-05-09T03:33:18;9.85;;;6.32;;
61709;SDS011;47633;51.494;5.386;2023-05-09T03:35:43;8.10;;;6.25;;
61709;SDS011;47633;51.494;5.386;2023-05-09T03:38:09;8.30;;;6.15;;
61709;SDS011;47633;51.494;5.386;2023-05-09T03:40:34;9.35;;;6.63;;
61709;SDS011;47633;51.494;5.386;2023-05-09T03:42:59;9.00;;;6.17;;
61709;SDS011;47633;51.494;5.386;2023-05-09T03:45:25;8.50;;;5.82;;
61709;SDS011;47633;51.494;5.386;2023-05-09T03:47:50;8.82;;;6.10;;
61709;SDS011;47633;51.494;5.386;2023-05-09T03:50:15;8.33;;;6.37;;
61709;SDS011;47633;51.494;5.386;2023-05-09T03:52:40;8.73;;;6.43;;
61709;SDS011;47633;51.494;5.386;2023-05-09T03:55:06;8.35;;;6.35;;
61709;SDS011;47633;51.494;5.386;2023-05-09T03:57:33;8.30;;;5.97;;
61709;SDS011;47633;51.494;5.386;2023-05-09T03:59:59;9.02;;;6.15;;
61709;SDS011;47633;51.494;5.386;2023-05-09T04:02:24;8.32;;;6.28;;
61709;SDS011;47633;51.494;5.386;2023-05-09T04:04:49;7.63;;;5.93;;
61709;SDS011;47633;51.494;5.386;2023-05-09T04:07:16;8.32;;;5.95;;
61709;SDS011;47633;51.494;5.386;2023-05-09T04:09:42;9.57;;;6.13;;
61709;SDS011;47633;51.494;5.386;2023-05-09T04:12:07;7.47;;;5.90;;
61709;SDS011;47633;51.494;5.386;2023-05-09T04:14:33;8.48;;;6.00;;
61709;SDS011;47633;51.494;5.386;2023-05-09T04:16:58;8.40;;;5.82;;
61709;SDS011;47633;51.494;5.386;2023-05-09T04:19:23;9.25;;;6.20;;
61709;SDS011;47633;51.494;5.386;2023-05-09T04:21:48;8.20;;;5.70;;
61709;SDS011;47633;51.494;5.386;2023-05-09T04:24:14;8.63;;;6.20;;
61709;SDS011;47633;51.494;5.386;2023-05-09T04:26:39;10.13;;;6.15;;
61709;SDS011;47633;51.494;5.386;2023-05-09T04:29:04;10.05;;;6.35;;
61709;SDS011;47633;51.494;5.386;2023-05-09T04:31:30;8.63;;;6.00;;
61709;SDS011;47633;51.494;5.386;2023-05-09T04:33:55;7.55;;;5.47;;
61709;SDS011;47633;51.494;5.386;2023-05-09T04:36:22;8.65;;;6.00;;
61709;SDS011;47633;51.494;5.386;2023-05-09T04:38:47;7.63;;;5.28;;
61709;SDS011;47633;51.494;5.386;2023-05-09T04:41:13;7.47;;;5.50;;
61709;SDS011;47633;51.494;5.386;2023-05-09T04:43:38;7.90;;;5.95;;
61709;SDS011;47633;51.494;5.386;2023-05-09T04:46:03;7.47;;;5.65;;
61709;SDS011;47633;51.494;5.386;2023-05-09T04:48:28;8.45;;;5.13;;
61709;SDS011;47633;51.494;5.386;2023-05-09T04:50:54;7.63;;;5.07;;
61709;SDS011;47633;51.494;5.386;2023-05-09T04:53:19;7.00;;;5.07;;
61709;SDS011;47633;51.494;5.386;2023-05-09T04:55:44;7.53;;;5.45;;
61709;SDS011;47633;51.494;5.386;2023-05-09T04:58:10;7.20;;;5.38;;
61709;SDS011;47633;51.494;5.386;2023-05-09T05:00:35;6.95;;;4.95;;
61709;SDS011;47633;51.494;5.386;2023-05-09T05:03:00;7.85;;;5.88;;
61709;SDS011;47633;51.494;5.386;2023-05-09T05:05:25;9.70;;;4.80;;
61709;SDS011;47633;51.494;5.386;2023-05-09T05:07:51;11.73;;;5.40;;
61709;SDS011;47633;51.494;5.386;2023-05-09T05:10:18;7.22;;;4.93;;
61709;SDS011;47633;51.494;5.386;2023-05-09T05:12:44;7.28;;;5.43;;
61709;SDS011;47633;51.494;5.386;2023-05-09T05:15:10;7.55;;;5.25;;
61709;SDS011;47633;51.494;5.386;2023-05-09T05:17:36;7.07;;;4.72;;
61709;SDS011;47633;51.494;5.386;2023-05-09T05:20:01;7.00;;;4.90;;
61709;SDS011;47633;51.494;5.386;2023-05-09T05:22:30;6.95;;;4.65;;
61709;SDS011;47633;51.494;5.386;2023-05-09T05:24:55;7.18;;;4.90;;
61709;SDS011;47633;51.494;5.386;2023-05-09T05:27:20;6.18;;;4.25;;
61709;SDS011;47633;51.494;5.386;2023-05-09T05:29:46;6.88;;;4.78;;
61709;SDS011;47633;51.494;5.386;2023-05-09T05:32:11;5.97;;;4.67;;
61709;SDS011;47633;51.494;5.386;2023-05-09T05:34:36;6.45;;;4.88;;
61709;SDS011;47633;51.494;5.386;2023-05-09T05:37:03;6.88;;;4.63;;
61709;SDS011;47633;51.494;5.386;2023-05-09T05:39:28;6.72;;;4.57;;
61709;SDS011;47633;51.494;5.386;2023-05-09T05:41:54;6.67;;;4.70;;
61709;SDS011;47633;51.494;5.386;2023-05-09T05:44:19;6.70;;;4.65;;
61709;SDS011;47633;51.494;5.386;2023-05-09T05:46:45;7.30;;;4.55;;
61709;SDS011;47633;51.494;5.386;2023-05-09T05:49:10;6.90;;;4.65;;
61709;SDS011;47633;51.494;5.386;2023-05-09T05:51:35;6.43;;;4.75;;
61709;SDS011;47633;51.494;5.386;2023-05-09T05:54:00;6.25;;;4.20;;
61709;SDS011;47633;51.494;5.386;2023-05-09T05:56:26;7.45;;;4.35;;
61709;SDS011;47633;51.494;5.386;2023-05-09T05:58:51;6.40;;;4.60;;
61709;SDS011;47633;51.494;5.386;2023-05-09T06:01:16;6.60;;;4.63;;
61709;SDS011;47633;51.494;5.386;2023-05-09T06:03:42;6.85;;;4.70;;
61709;SDS011;47633;51.494;5.386;2023-05-09T06:06:07;6.87;;;4.57;;
61709;SDS011;47633;51.494;5.386;2023-05-09T06:08:32;9.57;;;5.30;;
61709;SDS011;47633;51.494;5.386;2023-05-09T06:10:59;6.93;;;4.87;;
61709;SDS011;47633;51.494;5.386;2023-05-09T06:13:24;7.80;;;4.82;;
61709;SDS011;47633;51.494;5.386;2023-05-09T06:15:50;7.10;;;4.70;;
61709;SDS011;47633;51.494;5.386;2023-05-09T06:18:15;7.55;;;4.32;;
61709;SDS011;47633;51.494;5.386;2023-05-09T06:20:40;8.02;;;5.18;;
61709;SDS011;47633;51.494;5.386;2023-05-09T06:23:05;6.65;;;4.35;;
61709;SDS011;47633;51.494;5.386;2023-05-09T06:25:31;6.37;;;4.60;;
61709;SDS011;47633;51.494;5.386;2023-05-09T06:27:56;8.02;;;4.80;;
61709;SDS011;47633;51.494;5.386;2023-05-09T06:30:21;7.70;;;4.30;;
61709;SDS011;47633;51.494;5.386;2023-05-09T06:32:46;8.50;;;4.85;;
61709;SDS011;47633;51.494;5.386;2023-05-09T06:35:12;6.03;;;4.40;;
61709;SDS011;47633;51.494;5.386;2023-05-09T06:37:37;6.75;;;4.75;;
61709;SDS011;47633;51.494;5.386;2023-05-09T06:40:02;9.50;;;4.43;;
61709;SDS011;47633;51.494;5.386;2023-05-09T06:42:28;8.30;;;4.25;;
61709;SDS011;47633;51.494;5.386;2023-05-09T06:44:54;6.57;;;4.35;;
61709;SDS011;47633;51.494;5.386;2023-05-09T06:47:19;6.68;;;4.50;;
61709;SDS011;47633;51.494;5.386;2023-05-09T06:49:44;8.65;;;4.60;;
61709;SDS011;47633;51.494;5.386;2023-05-09T06:52:10;7.00;;;4.20;;
61709;SDS011;47633;51.494;5.386;2023-05-09T06:54:36;7.13;;;4.60;;
61709;SDS011;47633;51.494;5.386;2023-05-09T06:57:02;5.90;;;4.50;;
61709;SDS011;47633;51.494;5.386;2023-05-09T06:59:28;6.53;;;4.03;;
61709;SDS011;47633;51.494;5.386;2023-05-09T07:01:53;7.90;;;4.30;;
61709;SDS011;47633;51.494;5.386;2023-05-09T07:04:19;6.18;;;4.40;;
61709;SDS011;47633;51.494;5.386;2023-05-09T07:06:44;6.78;;;4.40;;
61709;SDS011;47633;51.494;5.386;2023-05-09T07:09:10;8.00;;;4.18;;
61709;SDS011;47633;51.494;5.386;2023-05-09T07:11:36;7.72;;;4.22;;
61709;SDS011;47633;51.494;5.386;2023-05-09T07:14:02;6.10;;;4.05;;
61709;SDS011;47633;51.494;5.386;2023-05-09T07:16:27;6.03;;;4.18;;
61709;SDS011;47633;51.494;5.386;2023-05-09T07:18:53;8.95;;;5.45;;
61709;SDS011;47633;51.494;5.386;2023-05-09T07:21:19;7.57;;;4.65;;
61709;SDS011;47633;51.494;5.386;2023-05-09T07:23:44;6.95;;;4.15;;
61709;SDS011;47633;51.494;5.386;2023-05-09T07:26:09;9.15;;;4.07;;
61709;SDS011;47633;51.494;5.386;2023-05-09T07:28:35;5.93;;;3.80;;
61709;SDS011;47633;51.494;5.386;2023-05-09T07:31:00;6.90;;;4.07;;
61709;SDS011;47633;51.494;5.386;2023-05-09T07:33:25;6.57;;;3.75;;
61709;SDS011;47633;51.494;5.386;2023-05-09T07:35:51;4.95;;;3.63;;
61709;SDS011;47633;51.494;5.386;2023-05-09T07:38:17;7.15;;;3.80;;
61709;SDS011;47633;51.494;5.386;2023-05-09T07:40:42;5.63;;;4.05;;
61709;SDS011;47633;51.494;5.386;2023-05-09T07:43:07;7.03;;;3.70;;
61709;SDS011;47633;51.494;5.386;2023-05-09T07:45:32;7.32;;;4.00;;
61709;SDS011;47633;51.494;5.386;2023-05-09T07:47:58;6.07;;;3.50;;
61709;SDS011;47633;51.494;5.386;2023-05-09T07:50:24;5.38;;;3.50;;
61709;SDS011;47633;51.494;5.386;2023-05-09T07:52:49;7.43;;;3.90;;
61709;SDS011;47633;51.494;5.386;2023-05-09T07:55:15;5.55;;;3.75;;
61709;SDS011;47633;51.494;5.386;2023-05-09T07:57:41;6.90;;;3.88;;
61709;SDS011;47633;51.494;5.386;2023-05-09T08:00:06;5.83;;;3.93;;
61709;SDS011;47633;51.494;5.386;2023-05-09T08:02:32;5.97;;;3.85;;
61709;SDS011;47633;51.494;5.386;2023-05-09T08:04:58;5.72;;;3.42;;
61709;SDS011;47633;51.494;5.386;2023-05-09T08:07:23;6.17;;;3.77;;
61709;SDS011;47633;51.494;5.386;2023-05-09T08:09:48;6.03;;;4.18;;
61709;SDS011;47633;51.494;5.386;2023-05-09T08:12:13;5.77;;;3.63;;
61709;SDS011;47633;51.494;5.386;2023-05-09T08:14:39;5.72;;;3.70;;
61709;SDS011;47633;51.494;5.386;2023-05-09T08:17:04;6.40;;;3.70;;
61709;SDS011;47633;51.494;5.386;2023-05-09T08:19:29;6.73;;;3.70;;
61709;SDS011;47633;51.494;5.386;2023-05-09T08:21:55;6.20;;;3.17;;
61709;SDS011;47633;51.494;5.386;2023-05-09T08:24:20;5.65;;;3.58;;
61709;SDS011;47633;51.494;5.386;2023-05-09T08:26:45;5.70;;;3.40;;
61709;SDS011;47633;51.494;5.386;2023-05-09T08:29:11;6.53;;;3.50;;
61709;SDS011;47633;51.494;5.386;2023-05-09T08:31:36;4.65;;;3.17;;
61709;SDS011;47633;51.494;5.386;2023-05-09T08:34:01;6.75;;;3.40;;
61709;SDS011;47633;51.494;5.386;2023-05-09T08:36:27;6.28;;;3.60;;
61709;SDS011;47633;51.494;5.386;2023-05-09T08:38:52;6.03;;;3.20;;
61709;SDS011;47633;51.494;5.386;2023-05-09T08:41:17;5.40;;;3.40;;
61709;SDS011;47633;51.494;5.386;2023-05-09T08:43:50;6.60;;;3.30;;
61709;SDS011;47633;51.494;5.386;2023-05-09T08:46:16;5.22;;;3.30;;
61709;SDS011;47633;51.494;5.386;2023-05-09T08:48:46;5.53;;;3.58;;
61709;SDS011;47633;51.494;5.386;2023-05-09T08:51:12;4.78;;;3.20;;
61709;SDS011;47633;51.494;5.386;2023-05-09T08:53:40;5.13;;;3.13;;
61709;SDS011;47633;51.494;5.386;2023-05-09T08:56:07;7.32;;;3.90;;
61709;SDS011;47633;51.494;5.386;2023-05-09T08:58:33;5.70;;;3.30;;
61709;SDS011;47633;51.494;5.386;2023-05-09T09:00:58;4.75;;;3.30;;
61709;SDS011;47633;51.494;5.386;2023-05-09T09:03:28;5.90;;;3.20;;
61709;SDS011;47633;51.494;5.386;2023-05-09T09:05:54;5.20;;;3.63;;
61709;SDS011;47633;51.494;5.386;2023-05-09T09:08:21;7.25;;;3.13;;
61709;SDS011;47633;51.494;5.386;2023-05-09T09:10:47;4.95;;;3.50;;
61709;SDS011;47633;51.494;5.386;2023-05-09T09:13:13;5.43;;;3.35;;
61709;SDS011;47633;51.494;5.386;2023-05-09T09:15:40;4.65;;;2.97;;
61709;SDS011;47633;51.494;5.386;2023-05-09T09:18:10;5.68;;;2.95;;
61709;SDS011;47633;51.494;5.386;2023-05-09T09:20:47;5.18;;;3.03;;
61709;SDS011;47633;51.494;5.386;2023-05-09T09:23:19;4.72;;;2.97;;
61709;SDS011;47633;51.494;5.386;2023-05-09T09:25:48;6.07;;;3.00;;
61709;SDS011;47633;51.494;5.386;2023-05-09T09:28:13;6.38;;;2.80;;
61709;SDS011;47633;51.494;5.386;2023-05-09T09:30:57;5.15;;;2.80;;
61709;SDS011;47633;51.494;5.386;2023-05-09T09:33:23;5.22;;;3.20;;
61709;SDS011;47633;51.494;5.386;2023-05-09T09:35:50;4.88;;;2.97;;
61709;SDS011;47633;51.494;5.386;2023-05-09T09:38:17;5.65;;;2.80;;
61709;SDS011;47633;51.494;5.386;2023-05-09T09:40:56;5.30;;;2.90;;
61709;SDS011;47633;51.494;5.386;2023-05-09T09:43:25;4.30;;;2.70;;
61709;SDS011;47633;51.494;5.386;2023-05-09T09:45:52;6.32;;;2.83;;
61709;SDS011;47633;51.494;5.386;2023-05-09T09:48:17;4.53;;;2.58;;
61709;SDS011;47633;51.494;5.386;2023-05-09T09:50:47;5.53;;;3.03;;
61709;SDS011;47633;51.494;5.386;2023-05-09T09:53:13;4.20;;;2.73;;
61709;SDS011;47633;51.494;5.386;2023-05-09T09:55:38;4.57;;;2.70;;
61709;SDS011;47633;51.494;5.386;2023-05-09T09:58:17;4.68;;;2.70;;
61709;SDS011;47633;51.494;5.386;2023-05-09T10:00:46;4.70;;;2.75;;
61709;SDS011;47633;51.494;5.386;2023-05-09T10:03:15;4.20;;;2.47;;
61709;SDS011;47633;51.494;5.386;2023-05-09T10:05:41;5.53;;;3.08;;
61709;SDS011;47633;51.494;5.386;2023-05-09T10:08:06;4.80;;;2.47;;
61709;SDS011;47633;51.494;5.386;2023-05-09T10:10:33;4.72;;;2.97;;
61709;SDS011;47633;51.494;5.386;2023-05-09T10:13:01;4.65;;;2.70;;
61709;SDS011;47633;51.494;5.386;2023-05-09T10:15:28;4.68;;;2.80;;
61709;SDS011;47633;51.494;5.386;2023-05-09T10:17:56;4.65;;;2.55;;
61709;SDS011;47633;51.494;5.386;2023-05-09T10:20:22;7.70;;;2.78;;
61709;SDS011;47633;51.494;5.386;2023-05-09T10:22:49;4.72;;;2.50;;
61709;SDS011;47633;51.494;5.386;2023-05-09T10:25:18;4.22;;;2.42;;
61709;SDS011;47633;51.494;5.386;2023-05-09T10:27:45;5.38;;;2.40;;
61709;SDS011;47633;51.494;5.386;2023-05-09T10:30:22;5.88;;;2.40;;
61709;SDS011;47633;51.494;5.386;2023-05-09T10:33:03;6.45;;;3.08;;
61709;SDS011;47633;51.494;5.386;2023-05-09T10:35:44;8.77;;;2.47;;
61709;SDS011;47633;51.494;5.386;2023-05-09T10:38:11;4.97;;;2.50;;
61709;SDS011;47633;51.494;5.386;2023-05-09T10:40:37;6.80;;;2.80;;
61709;SDS011;47633;51.494;5.386;2023-05-09T10:43:04;6.28;;;2.78;;
61709;SDS011;47633;51.494;5.386;2023-05-09T10:45:31;4.82;;;2.42;;
61709;SDS011;47633;51.494;5.386;2023-05-09T10:47:57;6.47;;;2.60;;
61709;SDS011;47633;51.494;5.386;2023-05-09T10:50:23;5.18;;;2.58;;
61709;SDS011;47633;51.494;5.386;2023-05-09T10:55:37;5.07;;;2.60;;
61709;SDS011;47633;51.494;5.386;2023-05-09T10:58:22;4.60;;;2.60;;
61709;SDS011;47633;51.494;5.386;2023-05-09T11:00:51;4.40;;;2.40;;
61709;SDS011;47633;51.494;5.386;2023-05-09T11:03:18;4.35;;;2.47;;
61709;SDS011;47633;51.494;5.386;2023-05-09T11:05:49;6.43;;;2.60;;
61709;SDS011;47633;51.494;5.386;2023-05-09T11:08:17;5.93;;;2.72;;
61709;SDS011;47633;51.494;5.386;2023-05-09T11:10:49;4.28;;;2.60;;
61709;SDS011;47633;51.494;5.386;2023-05-09T11:13:19;6.82;;;2.40;;
61709;SDS011;47633;51.494;5.386;2023-05-09T11:15:50;5.03;;;2.40;;
61709;SDS011;47633;51.494;5.386;2023-05-09T11:18:26;8.55;;;2.50;;
61709;SDS011;47633;51.494;5.386;2023-05-09T11:20:53;5.15;;;2.42;;
61709;SDS011;47633;51.494;5.386;2023-05-09T11:23:20;6.20;;;2.53;;
61709;SDS011;47633;51.494;5.386;2023-05-09T11:25:50;4.72;;;2.55;;
61709;SDS011;47633;51.494;5.386;2023-05-09T11:28:30;4.43;;;2.40;;
61709;SDS011;47633;51.494;5.386;2023-05-09T11:31:12;4.03;;;2.10;;
61709;SDS011;47633;51.494;5.386;2023-05-09T11:33:39;5.55;;;2.65;;
61709;SDS011;47633;51.494;5.386;2023-05-09T11:39:13;5.20;;;2.22;;
61709;SDS011;47633;51.494;5.386;2023-05-09T11:41:49;5.25;;;2.50;;
61709;SDS011;47633;51.494;5.386;2023-05-09T11:44:16;4.57;;;2.20;;
61709;SDS011;47633;51.494;5.386;2023-05-09T11:46:46;4.95;;;2.53;;
61709;SDS011;47633;51.494;5.386;2023-05-09T11:49:12;5.07;;;2.45;;
61709;SDS011;47633;51.494;5.386;2023-05-09T11:51:44;4.88;;;2.25;;
61709;SDS011;47633;51.494;5.386;2023-05-09T11:54:09;7.03;;;2.53;;
61709;SDS011;47633;51.494;5.386;2023-05-09T11:56:37;4.93;;;1.88;;
61709;SDS011;47633;51.494;5.386;2023-05-09T11:59:04;4.00;;;1.88;;
61709;SDS011;47633;51.494;5.386;2023-05-09T12:01:29;4.75;;;2.28;;
61709;SDS011;47633;51.494;5.386;2023-05-09T12:03:56;4.05;;;2.08;;
61709;SDS011;47633;51.494;5.386;2023-05-09T12:06:25;5.53;;;2.10;;
61709;SDS011;47633;51.494;5.386;2023-05-09T12:08:53;4.07;;;1.88;;
61709;SDS011;47633;51.494;5.386;2023-05-09T12:11:19;6.65;;;2.17;;
61709;SDS011;47633;51.494;5.386;2023-05-09T12:13:46;3.75;;;2.03;;
61709;SDS011;47633;51.494;5.386;2023-05-09T12:16:14;4.13;;;1.73;;
61709;SDS011;47633;51.494;5.386;2023-05-09T12:18:50;3.85;;;1.90;;
61709;SDS011;47633;51.494;5.386;2023-05-09T12:21:16;3.60;;;1.90;;
61709;SDS011;47633;51.494;5.386;2023-05-09T12:23:43;3.50;;;1.65;;
61709;SDS011;47633;51.494;5.386;2023-05-09T12:26:09;4.40;;;1.77;;
61709;SDS011;47633;51.494;5.386;2023-05-09T12:28:35;7.50;;;2.10;;
61709;SDS011;47633;51.494;5.386;2023-05-09T12:31:00;3.97;;;2.33;;
61709;SDS011;47633;51.494;5.386;2023-05-09T12:33:26;4.20;;;1.80;;
61709;SDS011;47633;51.494;5.386;2023-05-09T12:36:02;3.72;;;1.80;;
61709;SDS011;47633;51.494;5.386;2023-05-09T12:38:35;5.43;;;1.92;;
61709;SDS011;47633;51.494;5.386;2023-05-09T12:41:02;5.57;;;2.38;;
61709;SDS011;47633;51.494;5.386;2023-05-09T12:43:30;5.55;;;1.90;;
61709;SDS011;47633;51.494;5.386;2023-05-09T12:45:56;4.30;;;1.90;;
61709;SDS011;47633;51.494;5.386;2023-05-09T12:48:23;3.60;;;1.80;;
61709;SDS011;47633;51.494;5.386;2023-05-09T12:50:48;5.43;;;1.80;;
61709;SDS011;47633;51.494;5.386;2023-05-09T12:53:22;4.13;;;1.80;;
61709;SDS011;47633;51.494;5.386;2023-05-09T12:56:34;4.10;;;1.48;;
61709;SDS011;47633;51.494;5.386;2023-05-09T12:58:52;4.85;;;2.10;;
61709;SDS011;47633;51.494;5.386;2023-05-09T13:01:19;6.03;;;2.00;;
61709;SDS011;47633;51.494;5.386;2023-05-09T13:03:51;5.00;;;1.80;;
61709;SDS011;47633;51.494;5.386;2023-05-09T13:06:24;3.72;;;1.80;;
61709;SDS011;47633;51.494;5.386;2023-05-09T13:08:58;4.38;;;1.75;;
61709;SDS011;47633;51.494;5.386;2023-05-09T13:11:25;6.15;;;1.75;;
61709;SDS011;47633;51.494;5.386;2023-05-09T13:13:52;4.47;;;1.90;;
61709;SDS011;47633;51.494;5.386;2023-05-09T13:16:18;4.82;;;1.73;;
61709;SDS011;47633;51.494;5.386;2023-05-09T13:18:43;3.38;;;1.80;;
61709;SDS011;47633;51.494;5.386;2023-05-09T13:21:09;4.28;;;1.80;;
61709;SDS011;47633;51.494;5.386;2023-05-09T13:23:34;3.53;;;1.60;;
61709;SDS011;47633;51.494;5.386;2023-05-09T13:26:00;3.45;;;1.70;;
61709;SDS011;47633;51.494;5.386;2023-05-09T13:28:25;4.03;;;1.77;;
61709;SDS011;47633;51.494;5.386;2023-05-09T13:30:50;3.67;;;1.90;;
61709;SDS011;47633;51.494;5.386;2023-05-09T13:33:15;4.40;;;1.80;;
61709;SDS011;47633;51.494;5.386;2023-05-09T13:35:41;3.72;;;1.70;;
61709;SDS011;47633;51.494;5.386;2023-05-09T13:38:06;3.80;;;1.77;;
61709;SDS011;47633;51.494;5.386;2023-05-09T13:40:31;3.97;;;1.83;;
61709;SDS011;47633;51.494;5.386;2023-05-09T13:42:57;3.15;;;1.58;;
61709;SDS011;47633;51.494;5.386;2023-05-09T13:45:22;4.20;;;1.60;;
61709;SDS011;47633;51.494;5.386;2023-05-09T13:47:48;4.93;;;1.90;;
61709;SDS011;47633;51.494;5.386;2023-05-09T13:50:14;3.92;;;1.70;;
61709;SDS011;47633;51.494;5.386;2023-05-09T13:52:39;3.40;;;1.52;;
61709;SDS011;47633;51.494;5.386;2023-05-09T13:55:05;4.47;;;2.13;;
61709;SDS011;47633;51.494;5.386;2023-05-09T13:57:30;5.18;;;1.65;;
61709;SDS011;47633;51.494;5.386;2023-05-09T13:59:56;4.35;;;1.48;;
61709;SDS011;47633;51.494;5.386;2023-05-09T14:02:21;5.75;;;1.63;;
61709;SDS011;47633;51.494;5.386;2023-05-09T14:04:48;5.00;;;1.85;;
61709;SDS011;47633;51.494;5.386;2023-05-09T14:07:13;3.65;;;1.50;;
61709;SDS011;47633;51.494;5.386;2023-05-09T14:09:40;9.88;;;1.73;;
61709;SDS011;47633;51.494;5.386;2023-05-09T14:12:06;4.53;;;1.90;;
61709;SDS011;47633;51.494;5.386;2023-05-09T14:14:31;3.95;;;1.67;;
61709;SDS011;47633;51.494;5.386;2023-05-09T14:16:57;4.18;;;1.83;;
61709;SDS011;47633;51.494;5.386;2023-05-09T14:19:23;4.25;;;1.60;;
61709;SDS011;47633;51.494;5.386;2023-05-09T14:21:50;4.10;;;1.60;;
61709;SDS011;47633;51.494;5.386;2023-05-09T14:24:16;4.22;;;1.80;;
61709;SDS011;47633;51.494;5.386;2023-05-09T14:26:41;4.90;;;1.80;;
61709;SDS011;47633;51.494;5.386;2023-05-09T14:29:07;3.47;;;1.58;;
61709;SDS011;47633;51.494;5.386;2023-05-09T14:31:33;3.10;;;1.60;;
61709;SDS011;47633;51.494;5.386;2023-05-09T14:33:58;5.20;;;1.80;;
61709;SDS011;47633;51.494;5.386;2023-05-09T14:36:26;3.45;;;1.58;;
61709;SDS011;47633;51.494;5.386;2023-05-09T14:38:52;4.68;;;1.70;;
61709;SDS011;47633;51.494;5.386;2023-05-09T14:41:18;4.47;;;1.88;;
61709;SDS011;47633;51.494;5.386;2023-05-09T14:43:43;5.82;;;1.60;;
61709;SDS011;47633;51.494;5.386;2023-05-09T14:46:09;4.15;;;1.67;;
61709;SDS011;47633;51.494;5.386;2023-05-09T14:48:37;4.15;;;2.08;;
61709;SDS011;47633;51.494;5.386;2023-05-09T14:51:02;3.58;;;1.50;;
61709;SDS011;47633;51.494;5.386;2023-05-09T14:53:27;4.07;;;1.50;;
61709;SDS011;47633;51.494;5.386;2023-05-09T14:55:53;4.88;;;1.80;;
61709;SDS011;47633;51.494;5.386;2023-05-09T14:58:20;4.93;;;1.63;;
61709;SDS011;47633;51.494;5.386;2023-05-09T15:00:46;3.65;;;1.65;;